sensor_id;sensor_type;location;lat;lon;timestamp;pressure;altitude;pressure_sealevel;temperature;humidity
64844;BME280;51310;52.198;5.422;2022-12-29T00:02:23;99663.59;;;9.31;100.00
64844;BME280;51310;52.198;5.422;2022-12-29T00:04:50;99652.69;;;9.34;100.00
64844;BME280;51310;52.198;5.422;2022-12-29T00:07:17;99644.47;;;9.38;100.00
64844;BME280;51310;52.198;5.422;2022-12-29T00:09:43;99647.41;;;9.42;100.00
64844;BME280;51310;52.198;5.422;2022-12-29T00:12:08;99642.63;;;9.47;100.00
64844;BME280;51310;52.198;5.422;2022-12-29T00:14:34;99640.06;;;9.47;100.00
64844;BME280;51310;52.198;5.422;2022-12-29T00:17:18;99636.59;;;9.47;100.00
64844;BME280;51310;52.198;5.422;2022-12-29T00:19:44;99643.00;;;9.52;100.00
64844;BME280;51310;52.198;5.422;2022-12-29T00:22:28;99636.09;;;9.51;100.00
64844;BME280;51310;52.198;5.422;2022-12-29T00:25:13;99621.81;;;9.54;100.00
64844;BME280;51310;52.198;5.422;2022-12-29T00:27:58;99616.28;;;9.50;100.00
64844;BME280;51310;52.198;5.422;2022-12-29T00:30:43;99620.69;;;9.51;100.00
64844;BME280;51310;52.198;5.422;2022-12-29T00:33:31;99609.09;;;9.56;100.00
64844;BME280;51310;52.198;5.422;2022-12-29T00:36:39;99607.03;;;9.62;100.00
64844;BME280;51310;52.198;5.422;2022-12-29T00:39:16;99613.47;;;9.57;100.00
64844;BME280;51310;52.198;5.422;2022-12-29T00:42:08;99603.03;;;9.65;100.00
64844;BME280;51310;52.198;5.422;2022-12-29T00:44:52;99590.28;;;9.67;100.00
64844;BME280;51310;52.198;5.422;2022-12-29T00:47:18;99589.53;;;9.68;100.00
64844;BME280;51310;52.198;5.422;2022-12-29T00:49:44;99594.41;;;9.65;100.00
64844;BME280;51310;52.198;5.422;2022-12-29T00:52:12;99581.81;;;9.68;100.00
64844;BME280;51310;52.198;5.422;2022-12-29T00:54:40;99575.13;;;9.70;100.00
64844;BME280;51310;52.198;5.422;2022-12-29T00:57:08;99575.63;;;9.76;100.00
64844;BME280;51310;52.198;5.422;2022-12-29T00:59:36;99560.22;;;9.76;100.00
64844;BME280;51310;52.198;5.422;2022-12-29T01:02:01;99558.41;;;9.75;100.00
64844;BME280;51310;52.198;5.422;2022-12-29T01:04:27;99559.81;;;9.72;100.00
64844;BME280;51310;52.198;5.422;2022-12-29T01:06:53;99557.91;;;9.69;100.00
64844;BME280;51310;52.198;5.422;2022-12-29T01:09:20;99564.59;;;9.67;100.00
64844;BME280;51310;52.198;5.422;2022-12-29T01:12:06;99553.56;;;9.68;100.00
64844;BME280;51310;52.198;5.422;2022-12-29T01:14:32;99547.38;;;9.76;100.00
64844;BME280;51310;52.198;5.422;2022-12-29T01:16:58;99545.44;;;9.74;100.00
64844;BME280;51310;52.198;5.422;2022-12-29T01:19:24;99538.63;;;9.74;100.00
64844;BME280;51310;52.198;5.422;2022-12-29T01:21:51;99542.50;;;9.69;100.00
64844;BME280;51310;52.198;5.422;2022-12-29T01:24:18;99543.03;;;9.65;100.00
64844;BME280;51310;52.198;5.422;2022-12-29T01:26:45;99534.44;;;9.64;100.00
64844;BME280;51310;52.198;5.422;2022-12-29T01:29:11;99539.75;;;9.56;100.00
64844;BME280;51310;52.198;5.422;2022-12-29T01:31:37;99538.22;;;9.48;100.00
64844;BME280;51310;52.198;5.422;2022-12-29T01:34:03;99532.75;;;9.33;100.00
64844;BME280;51310;52.198;5.422;2022-12-29T01:36:29;99543.31;;;9.26;100.00
64844;BME280;51310;52.198;5.422;2022-12-29T01:38:56;99537.94;;;9.22;100.00
64844;BME280;51310;52.198;5.422;2022-12-29T01:41:22;99539.00;;;9.14;100.00
64844;BME280;51310;52.198;5.422;2022-12-29T01:43:49;99540.69;;;9.14;100.00
64844;BME280;51310;52.198;5.422;2022-12-29T01:48:48;99545.81;;;9.14;100.00
64844;BME280;51310;52.198;5.422;2022-12-29T01:51:16;99545.69;;;9.12;100.00
64844;BME280;51310;52.198;5.422;2022-12-29T01:53:43;99548.75;;;9.08;100.00
64844;BME280;51310;52.198;5.422;2022-12-29T01:56:14;99549.78;;;9.10;100.00
64844;BME280;51310;52.198;5.422;2022-12-29T01:58:45;99555.44;;;9.06;100.00
64844;BME280;51310;52.198;5.422;2022-12-29T02:01:14;99540.28;;;9.09;100.00
64844;BME280;51310;52.198;5.422;2022-12-29T02:03:41;99537.09;;;9.12;100.00
64844;BME280;51310;52.198;5.422;2022-12-29T02:06:21;99542.59;;;9.16;100.00
64844;BME280;51310;52.198;5.422;2022-12-29T02:08:50;99535.91;;;9.18;100.00
64844;BME280;51310;52.198;5.422;2022-12-29T02:11:18;99542.72;;;9.18;100.00
64844;BME280;51310;52.198;5.422;2022-12-29T02:13:44;99545.28;;;9.18;100.00
64844;BME280;51310;52.198;5.422;2022-12-29T02:38:13;99549.50;;;9.17;100.00
64844;BME280;51310;52.198;5.422;2022-12-29T02:40:55;99546.28;;;9.20;100.00
64844;BME280;51310;52.198;5.422;2022-12-29T02:43:50;99540.38;;;9.21;100.00
64844;BME280;51310;52.198;5.422;2022-12-29T02:46:35;99540.53;;;9.12;100.00
64844;BME280;51310;52.198;5.422;2022-12-29T02:51:45;99528.44;;;9.21;100.00
64844;BME280;51310;52.198;5.422;2022-12-29T02:54:13;99510.44;;;9.32;100.00
64844;BME280;51310;52.198;5.422;2022-12-29T02:57:00;99532.16;;;9.25;100.00
64844;BME280;51310;52.198;5.422;2022-12-29T02:59:26;99539.22;;;9.28;100.00
64844;BME280;51310;52.198;5.422;2022-12-29T03:08:18;99545.75;;;9.24;100.00
64844;BME280;51310;52.198;5.422;2022-12-29T03:10:59;99549.88;;;9.22;100.00
64844;BME280;51310;52.198;5.422;2022-12-29T03:13:42;99538.19;;;9.26;100.00
64844;BME280;51310;52.198;5.422;2022-12-29T03:16:52;99530.63;;;9.27;100.00
64844;BME280;51310;52.198;5.422;2022-12-29T03:19:28;99542.44;;;9.25;100.00
64844;BME280;51310;52.198;5.422;2022-12-29T03:22:07;99534.09;;;9.17;100.00
64844;BME280;51310;52.198;5.422;2022-12-29T03:24:58;99534.53;;;9.12;100.00
64844;BME280;51310;52.198;5.422;2022-12-29T03:27:34;99533.84;;;9.24;100.00
64844;BME280;51310;52.198;5.422;2022-12-29T03:30:05;99543.84;;;9.21;100.00
64844;BME280;51310;52.198;5.422;2022-12-29T03:32:37;99534.22;;;9.19;100.00
64844;BME280;51310;52.198;5.422;2022-12-29T03:35:05;99530.13;;;9.11;100.00
64844;BME280;51310;52.198;5.422;2022-12-29T03:37:41;99531.84;;;9.00;100.00
64844;BME280;51310;52.198;5.422;2022-12-29T03:40:09;99532.88;;;8.92;100.00
64844;BME280;51310;52.198;5.422;2022-12-29T03:42:37;99534.69;;;8.93;100.00
64844;BME280;51310;52.198;5.422;2022-12-29T03:45:06;99531.63;;;8.87;100.00
64844;BME280;51310;52.198;5.422;2022-12-29T03:47:32;99526.09;;;8.82;100.00
64844;BME280;51310;52.198;5.422;2022-12-29T03:49:58;99534.31;;;8.88;100.00
64844;BME280;51310;52.198;5.422;2022-12-29T03:52:24;99539.69;;;8.81;100.00
64844;BME280;51310;52.198;5.422;2022-12-29T03:54:49;99537.78;;;8.89;100.00
64844;BME280;51310;52.198;5.422;2022-12-29T03:57:15;99538.00;;;8.92;100.00
64844;BME280;51310;52.198;5.422;2022-12-29T03:59:41;99530.56;;;8.95;100.00
64844;BME280;51310;52.198;5.422;2022-12-29T04:02:06;99529.69;;;8.94;100.00
64844;BME280;51310;52.198;5.422;2022-12-29T04:04:32;99523.78;;;8.85;100.00
64844;BME280;51310;52.198;5.422;2022-12-29T04:06:58;99531.09;;;8.80;100.00
64844;BME280;51310;52.198;5.422;2022-12-29T04:09:23;99526.25;;;8.73;100.00
64844;BME280;51310;52.198;5.422;2022-12-29T04:11:49;99532.66;;;8.68;100.00
64844;BME280;51310;52.198;5.422;2022-12-29T04:14:15;99536.50;;;8.63;100.00
64844;BME280;51310;52.198;5.422;2022-12-29T04:16:41;99538.06;;;8.61;100.00
64844;BME280;51310;52.198;5.422;2022-12-29T04:19:07;99542.28;;;8.60;100.00
64844;BME280;51310;52.198;5.422;2022-12-29T04:21:33;99549.34;;;8.73;100.00
64844;BME280;51310;52.198;5.422;2022-12-29T04:23:59;99561.66;;;8.77;100.00
64844;BME280;51310;52.198;5.422;2022-12-29T04:26:25;99554.72;;;8.76;100.00
64844;BME280;51310;52.198;5.422;2022-12-29T04:28:51;99561.38;;;8.85;100.00
64844;BME280;51310;52.198;5.422;2022-12-29T04:31:17;99560.84;;;8.89;100.00
64844;BME280;51310;52.198;5.422;2022-12-29T04:33:42;99567.66;;;8.88;100.00
64844;BME280;51310;52.198;5.422;2022-12-29T04:36:08;99556.09;;;8.83;100.00
64844;BME280;51310;52.198;5.422;2022-12-29T04:38:34;99558.81;;;8.85;100.00
64844;BME280;51310;52.198;5.422;2022-12-29T04:41:01;99557.50;;;8.90;100.00
64844;BME280;51310;52.198;5.422;2022-12-29T04:43:28;99569.19;;;8.96;100.00
64844;BME280;51310;52.198;5.422;2022-12-29T04:45:54;99566.34;;;9.03;100.00
64844;BME280;51310;52.198;5.422;2022-12-29T04:48:20;99572.50;;;9.06;100.00
64844;BME280;51310;52.198;5.422;2022-12-29T04:50:48;99579.78;;;9.11;100.00
64844;BME280;51310;52.198;5.422;2022-12-29T04:53:16;99582.63;;;9.14;100.00
64844;BME280;51310;52.198;5.422;2022-12-29T04:55:42;99583.91;;;9.09;100.00
64844;BME280;51310;52.198;5.422;2022-12-29T04:58:08;99582.13;;;8.98;100.00
64844;BME280;51310;52.198;5.422;2022-12-29T05:00:34;99577.13;;;8.99;100.00
64844;BME280;51310;52.198;5.422;2022-12-29T05:03:00;99581.91;;;8.95;100.00
64844;BME280;51310;52.198;5.422;2022-12-29T05:05:26;99579.59;;;8.88;100.00
64844;BME280;51310;52.198;5.422;2022-12-29T05:07:51;99592.53;;;8.79;100.00
64844;BME280;51310;52.198;5.422;2022-12-29T05:10:17;99602.41;;;8.74;100.00
64844;BME280;51310;52.198;5.422;2022-12-29T05:12:43;99603.97;;;8.72;100.00
64844;BME280;51310;52.198;5.422;2022-12-29T05:15:10;99607.94;;;8.69;100.00
64844;BME280;51310;52.198;5.422;2022-12-29T05:17:36;99610.63;;;8.70;100.00
64844;BME280;51310;52.198;5.422;2022-12-29T05:20:05;99606.66;;;8.74;100.00
64844;BME280;51310;52.198;5.422;2022-12-29T05:22:30;99604.38;;;8.77;100.00
64844;BME280;51310;52.198;5.422;2022-12-29T05:24:56;99581.28;;;8.77;100.00
64844;BME280;51310;52.198;5.422;2022-12-29T05:27:22;99601.16;;;8.79;100.00
64844;BME280;51310;52.198;5.422;2022-12-29T05:29:48;99610.13;;;8.85;100.00
64844;BME280;51310;52.198;5.422;2022-12-29T05:32:13;99608.97;;;8.81;100.00
64844;BME280;51310;52.198;5.422;2022-12-29T05:34:39;99611.94;;;8.86;100.00
64844;BME280;51310;52.198;5.422;2022-12-29T05:37:05;99617.19;;;8.77;100.00
64844;BME280;51310;52.198;5.422;2022-12-29T05:39:31;99617.81;;;8.74;100.00
64844;BME280;51310;52.198;5.422;2022-12-29T05:41:56;99619.47;;;8.63;100.00
64844;BME280;51310;52.198;5.422;2022-12-29T05:44:22;99613.19;;;8.50;100.00
64844;BME280;51310;52.198;5.422;2022-12-29T05:46:48;99607.28;;;8.51;100.00
64844;BME280;51310;52.198;5.422;2022-12-29T05:49:15;99608.50;;;8.35;100.00
64844;BME280;51310;52.198;5.422;2022-12-29T05:51:40;99610.19;;;8.35;100.00
64844;BME280;51310;52.198;5.422;2022-12-29T05:54:06;99626.97;;;8.31;100.00
64844;BME280;51310;52.198;5.422;2022-12-29T05:56:32;99623.66;;;8.32;100.00
64844;BME280;51310;52.198;5.422;2022-12-29T05:58:58;99623.66;;;8.32;100.00
64844;BME280;51310;52.198;5.422;2022-12-29T06:01:24;99624.16;;;8.28;100.00
64844;BME280;51310;52.198;5.422;2022-12-29T06:03:49;99633.63;;;8.29;100.00
64844;BME280;51310;52.198;5.422;2022-12-29T06:06:15;99635.56;;;8.32;100.00
64844;BME280;51310;52.198;5.422;2022-12-29T06:08:41;99639.53;;;8.28;100.00
64844;BME280;51310;52.198;5.422;2022-12-29T06:11:07;99636.47;;;8.32;100.00
64844;BME280;51310;52.198;5.422;2022-12-29T06:13:32;99624.94;;;8.27;100.00
64844;BME280;51310;52.198;5.422;2022-12-29T06:15:58;99634.41;;;8.28;100.00
64844;BME280;51310;52.198;5.422;2022-12-29T06:18:24;99635.44;;;8.30;100.00
64844;BME280;51310;52.198;5.422;2022-12-29T06:20:49;99630.06;;;8.27;100.00
64844;BME280;51310;52.198;5.422;2022-12-29T06:23:15;99635.94;;;8.26;100.00
64844;BME280;51310;52.198;5.422;2022-12-29T06:25:42;99637.59;;;8.26;100.00
64844;BME280;51310;52.198;5.422;2022-12-29T06:28:07;99635.19;;;8.27;100.00
64844;BME280;51310;52.198;5.422;2022-12-29T06:30:33;99646.19;;;8.26;100.00
64844;BME280;51310;52.198;5.422;2022-12-29T06:32:59;99639.13;;;8.24;100.00
64844;BME280;51310;52.198;5.422;2022-12-29T06:35:25;99656.78;;;8.20;100.00
64844;BME280;51310;52.198;5.422;2022-12-29T06:37:51;99658.06;;;8.15;100.00
64844;BME280;51310;52.198;5.422;2022-12-29T06:40:17;99654.09;;;8.09;100.00
64844;BME280;51310;52.198;5.422;2022-12-29T06:42:43;99656.34;;;7.95;100.00
64844;BME280;51310;52.198;5.422;2022-12-29T06:45:09;99654.41;;;7.93;100.00
64844;BME280;51310;52.198;5.422;2022-12-29T06:47:35;99659.63;;;7.84;100.00
64844;BME280;51310;52.198;5.422;2022-12-29T06:50:02;99645.91;;;7.84;100.00
64844;BME280;51310;52.198;5.422;2022-12-29T06:52:28;99648.47;;;7.84;100.00
64844;BME280;51310;52.198;5.422;2022-12-29T06:54:54;99644.25;;;7.84;100.00
64844;BME280;51310;52.198;5.422;2022-12-29T06:57:21;99664.22;;;7.88;100.00
64844;BME280;51310;52.198;5.422;2022-12-29T06:59:47;99660.56;;;7.95;100.00
64844;BME280;51310;52.198;5.422;2022-12-29T07:02:13;99650.19;;;7.93;100.00
64844;BME280;51310;52.198;5.422;2022-12-29T07:04:43;99645.94;;;7.94;100.00
64844;BME280;51310;52.198;5.422;2022-12-29T07:07:09;99647.03;;;8.06;100.00
64844;BME280;51310;52.198;5.422;2022-12-29T07:09:34;99662.66;;;8.09;100.00
64844;BME280;51310;52.198;5.422;2022-12-29T07:12:00;99661.53;;;8.16;100.00
64844;BME280;51310;52.198;5.422;2022-12-29T07:14:26;99661.41;;;8.14;100.00
64844;BME280;51310;52.198;5.422;2022-12-29T07:16:51;99664.72;;;8.13;100.00
64844;BME280;51310;52.198;5.422;2022-12-29T07:19:17;99663.28;;;8.07;100.00
64844;BME280;51310;52.198;5.422;2022-12-29T07:21:43;99662.91;;;8.02;100.00
64844;BME280;51310;52.198;5.422;2022-12-29T07:24:09;99667.56;;;7.87;100.00
64844;BME280;51310;52.198;5.422;2022-12-29T07:26:35;99676.53;;;7.82;100.00
64844;BME280;51310;52.198;5.422;2022-12-29T07:29:03;99678.88;;;7.70;100.00
64844;BME280;51310;52.198;5.422;2022-12-29T07:31:29;99675.03;;;7.65;100.00
64844;BME280;51310;52.198;5.422;2022-12-29T07:33:54;99680.28;;;7.67;100.00
64844;BME280;51310;52.198;5.422;2022-12-29T07:36:20;99675.03;;;7.65;100.00
64844;BME280;51310;52.198;5.422;2022-12-29T07:38:46;99678.72;;;7.58;100.00
64844;BME280;51310;52.198;5.422;2022-12-29T07:41:11;99683.06;;;7.59;100.00
64844;BME280;51310;52.198;5.422;2022-12-29T07:43:37;99683.34;;;7.63;100.00
64844;BME280;51310;52.198;5.422;2022-12-29T07:46:03;99685.69;;;7.70;100.00
64844;BME280;51310;52.198;5.422;2022-12-29T07:48:29;99686.41;;;7.69;100.00
64844;BME280;51310;52.198;5.422;2022-12-29T07:50:55;99698.75;;;7.73;100.00
64844;BME280;51310;52.198;5.422;2022-12-29T07:53:20;99683.66;;;7.76;100.00
64844;BME280;51310;52.198;5.422;2022-12-29T07:55:46;99674.72;;;7.81;100.00
64844;BME280;51310;52.198;5.422;2022-12-29T07:58:12;99681.34;;;7.79;100.00
64844;BME280;51310;52.198;5.422;2022-12-29T08:00:38;99687.19;;;7.68;100.00
64844;BME280;51310;52.198;5.422;2022-12-29T08:03:05;99690.81;;;7.70;100.00
64844;BME280;51310;52.198;5.422;2022-12-29T08:05:34;99683.59;;;7.66;100.00
64844;BME280;51310;52.198;5.422;2022-12-29T08:08:00;99681.38;;;7.60;100.00
64844;BME280;51310;52.198;5.422;2022-12-29T08:10:26;99687.97;;;7.67;100.00
64844;BME280;51310;52.198;5.422;2022-12-29T08:12:52;99673.75;;;7.70;100.00
64844;BME280;51310;52.198;5.422;2022-12-29T08:15:17;99672.09;;;7.71;100.00
64844;BME280;51310;52.198;5.422;2022-12-29T08:17:43;99669.19;;;7.76;100.00
64844;BME280;51310;52.198;5.422;2022-12-29T08:20:09;99663.97;;;7.85;100.00
64844;BME280;51310;52.198;5.422;2022-12-29T08:22:35;99660.66;;;7.86;100.00
64844;BME280;51310;52.198;5.422;2022-12-29T08:25:01;99663.97;;;7.85;100.00
64844;BME280;51310;52.198;5.422;2022-12-29T08:27:27;99666.19;;;7.91;100.00
64844;BME280;51310;52.198;5.422;2022-12-29T08:29:53;99674.00;;;7.92;100.00
64844;BME280;51310;52.198;5.422;2022-12-29T08:32:18;99672.59;;;7.96;100.00
64844;BME280;51310;52.198;5.422;2022-12-29T08:34:45;99669.19;;;8.06;100.00
64844;BME280;51310;52.198;5.422;2022-12-29T08:37:11;99688.44;;;8.11;100.00
64844;BME280;51310;52.198;5.422;2022-12-29T08:39:37;99676.16;;;8.17;100.00
64844;BME280;51310;52.198;5.422;2022-12-29T08:42:02;99674.63;;;8.19;100.00
64844;BME280;51310;52.198;5.422;2022-12-29T08:44:28;99672.22;;;8.31;100.00
64844;BME280;51310;52.198;5.422;2022-12-29T08:46:54;99694.38;;;8.30;100.00
64844;BME280;51310;52.198;5.422;2022-12-29T08:49:19;99688.63;;;8.33;100.00
64844;BME280;51310;52.198;5.422;2022-12-29T08:51:45;99694.03;;;8.36;100.00
64844;BME280;51310;52.198;5.422;2022-12-29T08:54:11;99693.75;;;8.33;100.00
64844;BME280;51310;52.198;5.422;2022-12-29T08:56:37;99690.25;;;8.22;100.00
64844;BME280;51310;52.198;5.422;2022-12-29T08:59:02;99694.88;;;8.26;100.00
64844;BME280;51310;52.198;5.422;2022-12-29T09:01:28;99704.41;;;8.27;100.00
64844;BME280;51310;52.198;5.422;2022-12-29T09:03:55;99694.00;;;8.26;100.00
64844;BME280;51310;52.198;5.422;2022-12-29T09:06:21;99697.84;;;8.31;100.00
64844;BME280;51310;52.198;5.422;2022-12-29T09:08:47;99698.75;;;8.31;100.00
64844;BME280;51310;52.198;5.422;2022-12-29T09:11:23;99710.09;;;8.44;100.00
64844;BME280;51310;52.198;5.422;2022-12-29T09:13:50;99694.47;;;8.40;100.00
64844;BME280;51310;52.198;5.422;2022-12-29T09:16:16;99706.31;;;8.40;100.00
64844;BME280;51310;52.198;5.422;2022-12-29T09:18:43;99712.66;;;8.44;100.00
64844;BME280;51310;52.198;5.422;2022-12-29T09:21:11;99712.16;;;8.48;100.00
64844;BME280;51310;52.198;5.422;2022-12-29T09:23:37;99724.63;;;8.53;100.00
64844;BME280;51310;52.198;5.422;2022-12-29T09:26:03;99714.75;;;8.58;100.00
64844;BME280;51310;52.198;5.422;2022-12-29T09:28:30;99722.66;;;8.51;100.00
64844;BME280;51310;52.198;5.422;2022-12-29T09:30:57;99733.50;;;8.38;100.00
64844;BME280;51310;52.198;5.422;2022-12-29T09:33:24;99726.44;;;8.35;100.00
64844;BME280;51310;52.198;5.422;2022-12-29T09:35:58;99744.53;;;8.37;100.00
64844;BME280;51310;52.198;5.422;2022-12-29T09:38:25;99734.91;;;8.34;100.00
64844;BME280;51310;52.198;5.422;2022-12-29T09:41:18;99749.91;;;8.30;100.00
64844;BME280;51310;52.198;5.422;2022-12-29T09:47:11;99767.28;;;8.24;100.00
64844;BME280;51310;52.198;5.422;2022-12-29T09:50:03;99780.25;;;8.25;100.00
64844;BME280;51310;52.198;5.422;2022-12-29T09:52:59;99781.09;;;8.15;100.00
64844;BME280;51310;52.198;5.422;2022-12-29T09:55:50;99788.63;;;8.14;100.00
64844;BME280;51310;52.198;5.422;2022-12-29T09:58:41;99796.13;;;8.02;100.00
64844;BME280;51310;52.198;5.422;2022-12-29T10:01:26;99791.25;;;7.95;100.00
64844;BME280;51310;52.198;5.422;2022-12-29T10:03:57;99821.00;;;7.84;100.00
64844;BME280;51310;52.198;5.422;2022-12-29T10:09:15;99802.03;;;7.82;100.00
64844;BME280;51310;52.198;5.422;2022-12-29T10:15:31;99830.22;;;7.82;100.00
64844;BME280;51310;52.198;5.422;2022-12-29T10:18:37;99821.34;;;7.78;100.00
64844;BME280;51310;52.198;5.422;2022-12-29T10:24:02;99825.69;;;7.79;100.00
64844;BME280;51310;52.198;5.422;2022-12-29T10:26:39;99830.63;;;7.87;100.00
64844;BME280;51310;52.198;5.422;2022-12-29T10:29:19;99837.94;;;7.92;100.00
64844;BME280;51310;52.198;5.422;2022-12-29T10:32:05;99830.09;;;7.99;100.00
64844;BME280;51310;52.198;5.422;2022-12-29T10:34:39;99828.06;;;8.06;100.00
64844;BME280;51310;52.198;5.422;2022-12-29T10:40:42;99846.97;;;8.16;100.00
64844;BME280;51310;52.198;5.422;2022-12-29T10:43:48;99843.91;;;8.20;100.00
64844;BME280;51310;52.198;5.422;2022-12-29T10:46:23;99857.50;;;8.19;100.00
64844;BME280;51310;52.198;5.422;2022-12-29T10:48:49;99863.66;;;8.21;100.00
64844;BME280;51310;52.198;5.422;2022-12-29T10:51:24;99873.97;;;8.13;100.00
64844;BME280;51310;52.198;5.422;2022-12-29T10:54:03;99881.44;;;8.01;100.00
64844;BME280;51310;52.198;5.422;2022-12-29T10:56:39;99885.53;;;7.99;100.00
64844;BME280;51310;52.198;5.422;2022-12-29T10:59:21;99878.75;;;7.99;100.00
64844;BME280;51310;52.198;5.422;2022-12-29T11:05:13;99888.81;;;8.07;100.00
64844;BME280;51310;52.198;5.422;2022-12-29T11:07:48;99886.03;;;8.14;100.00
64844;BME280;51310;52.198;5.422;2022-12-29T11:13:10;99894.00;;;8.36;100.00
64844;BME280;51310;52.198;5.422;2022-12-29T11:15:54;99903.81;;;8.31;100.00
64844;BME280;51310;52.198;5.422;2022-12-29T11:18:23;99910.84;;;8.24;100.00
64844;BME280;51310;52.198;5.422;2022-12-29T11:21:35;99930.63;;;8.16;100.00
64844;BME280;51310;52.198;5.422;2022-12-29T11:24:24;99908.97;;;8.12;100.00
64844;BME280;51310;52.198;5.422;2022-12-29T11:27:10;99933.81;;;8.13;100.00
64844;BME280;51310;52.198;5.422;2022-12-29T11:29:41;99920.06;;;8.21;100.00
64844;BME280;51310;52.198;5.422;2022-12-29T11:32:19;99943.13;;;8.21;100.00
64844;BME280;51310;52.198;5.422;2022-12-29T11:34:46;99942.91;;;8.29;100.00
64844;BME280;51310;52.198;5.422;2022-12-29T11:37:17;99946.94;;;8.35;100.00
64844;BME280;51310;52.198;5.422;2022-12-29T11:39:55;99944.25;;;8.53;100.00
64844;BME280;51310;52.198;5.422;2022-12-29T11:45:19;99955.00;;;8.68;100.00
64844;BME280;51310;52.198;5.422;2022-12-29T11:47:50;99958.97;;;8.64;100.00
64844;BME280;51310;52.198;5.422;2022-12-29T11:50:29;99961.53;;;8.64;100.00
64844;BME280;51310;52.198;5.422;2022-12-29T11:53:06;99962.56;;;8.66;100.00
64844;BME280;51310;52.198;5.422;2022-12-29T11:55:39;99966.84;;;8.76;100.00
64844;BME280;51310;52.198;5.422;2022-12-29T11:58:05;99968.34;;;8.93;100.00
64844;BME280;51310;52.198;5.422;2022-12-29T12:00:36;99972.50;;;9.01;100.00
64844;BME280;51310;52.198;5.422;2022-12-29T12:03:16;99968.56;;;9.15;100.00
64844;BME280;51310;52.198;5.422;2022-12-29T12:05:59;99977.38;;;9.27;100.00
64844;BME280;51310;52.198;5.422;2022-12-29T12:09:02;99978.00;;;9.24;100.00
64844;BME280;51310;52.198;5.422;2022-12-29T12:11:42;99979.56;;;9.03;100.00
64844;BME280;51310;52.198;5.422;2022-12-29T12:14:25;99983.19;;;8.87;100.00
64844;BME280;51310;52.198;5.422;2022-12-29T12:17:00;99979.19;;;8.80;100.00
64844;BME280;51310;52.198;5.422;2022-12-29T12:19:47;99985.13;;;8.70;100.00
64844;BME280;51310;52.198;5.422;2022-12-29T12:25:04;99988.75;;;8.72;100.00
64844;BME280;51310;52.198;5.422;2022-12-29T12:27:57;99994.81;;;8.73;100.00
64844;BME280;51310;52.198;5.422;2022-12-29T12:30:28;99998.91;;;8.71;100.00
64844;BME280;51310;52.198;5.422;2022-12-29T12:33:24;100005.72;;;8.61;100.00
64844;BME280;51310;52.198;5.422;2022-12-29T12:40:06;100017.09;;;8.55;100.00
64844;BME280;51310;52.198;5.422;2022-12-29T12:46:35;100016.53;;;8.49;100.00
64844;BME280;51310;52.198;5.422;2022-12-29T12:52:22;100014.41;;;8.53;100.00
64844;BME280;51310;52.198;5.422;2022-12-29T12:58:41;100008.19;;;8.60;100.00
64844;BME280;51310;52.198;5.422;2022-12-29T13:01:23;100008.13;;;8.69;100.00
64844;BME280;51310;52.198;5.422;2022-12-29T13:04:12;100016.84;;;8.71;100.00
64844;BME280;51310;52.198;5.422;2022-12-29T13:09:50;100016.28;;;8.83;100.00
64844;BME280;51310;52.198;5.422;2022-12-29T13:12:27;100030.75;;;8.83;100.00
64844;BME280;51310;52.198;5.422;2022-12-29T13:18:03;100033.78;;;8.88;100.00
64844;BME280;51310;52.198;5.422;2022-12-29T13:20:49;100036.94;;;8.85;100.00
64844;BME280;51310;52.198;5.422;2022-12-29T13:23:54;100035.41;;;8.87;100.00
64844;BME280;51310;52.198;5.422;2022-12-29T13:26:57;100044.38;;;8.82;100.00
64844;BME280;51310;52.198;5.422;2022-12-29T13:29:30;100048.59;;;8.81;100.00
64844;BME280;51310;52.198;5.422;2022-12-29T13:32:23;100055.25;;;8.79;100.00
64844;BME280;51310;52.198;5.422;2022-12-29T13:35:25;100058.47;;;8.77;100.00
64844;BME280;51310;52.198;5.422;2022-12-29T13:38:26;100046.53;;;8.77;100.00
64844;BME280;51310;52.198;5.422;2022-12-29T13:41:11;100051.50;;;8.76;100.00
64844;BME280;51310;52.198;5.422;2022-12-29T13:43:42;100057.94;;;8.81;100.00
64844;BME280;51310;52.198;5.422;2022-12-29T13:46:17;100052.97;;;8.82;100.00
64844;BME280;51310;52.198;5.422;2022-12-29T13:49:02;100052.06;;;8.82;100.00
64844;BME280;51310;52.198;5.422;2022-12-29T13:51:31;100053.84;;;8.83;100.00
64844;BME280;51310;52.198;5.422;2022-12-29T13:56:39;100052.97;;;8.82;100.00
64844;BME280;51310;52.198;5.422;2022-12-29T13:59:46;100058.56;;;8.78;100.00
64844;BME280;51310;52.198;5.422;2022-12-29T14:07:45;100041.56;;;8.70;100.00
64844;BME280;51310;52.198;5.422;2022-12-29T14:10:38;100058.31;;;8.75;100.00
64844;BME280;51310;52.198;5.422;2022-12-29T14:13:21;100063.28;;;8.74;100.00
64844;BME280;51310;52.198;5.422;2022-12-29T14:15:57;100087.00;;;8.71;100.00
64844;BME280;51310;52.198;5.422;2022-12-29T14:18:26;100085.78;;;8.40;100.00
64844;BME280;51310;52.198;5.422;2022-12-29T14:23:43;100086.06;;;7.79;100.00
64844;BME280;51310;52.198;5.422;2022-12-29T14:28:55;100090.59;;;7.73;100.00
64844;BME280;51310;52.198;5.422;2022-12-29T14:36:39;100090.03;;;7.58;100.00
64844;BME280;51310;52.198;5.422;2022-12-29T14:39:43;100093.81;;;7.53;100.00
64844;BME280;51310;52.198;5.422;2022-12-29T14:47:46;100117.66;;;7.34;100.00
64844;BME280;51310;52.198;5.422;2022-12-29T14:52:55;100107.44;;;7.26;100.00
64844;BME280;51310;52.198;5.422;2022-12-29T14:55:45;100106.94;;;7.30;100.00
64844;BME280;51310;52.198;5.422;2022-12-29T14:58:25;100110.44;;;7.22;100.00
64844;BME280;51310;52.198;5.422;2022-12-29T15:00:52;100110.13;;;7.18;100.00
64844;BME280;51310;52.198;5.422;2022-12-29T15:05:52;100107.88;;;7.22;100.00
64844;BME280;51310;52.198;5.422;2022-12-29T15:08:29;100109.06;;;7.25;100.00
64844;BME280;51310;52.198;5.422;2022-12-29T15:11:22;100107.44;;;7.26;100.00
64844;BME280;51310;52.198;5.422;2022-12-29T15:13:51;100111.63;;;7.25;100.00
64844;BME280;51310;52.198;5.422;2022-12-29T15:16:34;100107.88;;;7.22;100.00
64844;BME280;51310;52.198;5.422;2022-12-29T15:19:02;100101.72;;;7.19;100.00